Port Angeles, Washington
Current Conditions -  °F | °C
As of 12:00 PM on Thursday 23 Oct 2014 (Local Time) from CYWH Reporting Station
Rain Showers Rain Showers  
Wind Chill: 13°   Ceiling: 6000
Heat Index: 13°   Visibility: 15mi
Dew Point:   Wind: 7mph
Humidity: 77%   Direction: 180°S
Pressure: 29.75"   Gusts: NA
Location:  48.12°N, 123.43°W
Report Text: CYWH 231900Z 18006KT 15SM VCSH FEW006 SCT030TCU BKN060 BKN11013/09 A2975 RMK CF2TCU2SC2AC2 SLP074
Loading
Personal Weather Stations






























Interactive Weather Map
Tropical Storm Tracking
New forecast layout! Learn more

10-Day Weather Forecast

Advertisements
Track Severe Weather on mobile